Weather observations for the past three days for
Worland, Worland Municipal Airport
Metric (Imperial)
Date Time (mdt) Wind (kph) Vis. (km) Weather Sky Cond. Temperature (ºC) Relative Humidity Wind Chill (°C) Heat Index (°C) Pressure Precipitation (cm)
Air Dwpt 6 hour altimeter (cm) sea level (mb) 1 hr 3 hr 6 hr
Max. Min.
04 05:53 SW 9 16.09 Fair CLR 6.7 -0.6 10.6 5.6 60% 5 75.64 1006.1
04 04:53 S 17 16.09 A Few Clouds FEW120 6.1 -1.1 60% 3 75.62 1005.9
04 03:53 S 7 16.09 Fair CLR 6.7 -1.1 58% 6 75.59 1005.5
04 02:53 S 11 16.09 Fair CLR 8.3 -1.1 52% 7 75.59 1005.3
04 01:53 S 7 16.09 Fair CLR 9.4 -1.1 48% 9 75.59 1005.2
04 00:53 SE 7 16.09 Fair CLR 7.8 -1.1 54% 7 75.62 1006.0
03 23:53 S 15 16.09 Fair CLR 10.6 -1.1 22.8 10.6 45% 75.62 1005.6
03 22:53 SW 11 16.09 Fair CLR 12.2 -0.6 42% 75.64 1006.0
03 21:53 S 19 16.09 Fair CLR 13.3 -1.1 37% 75.64 1006.0
03 20:53 SE 9 16.09 Fair CLR 13.9 -2.8 32% 75.64 1006.3
03 19:53 NE 7 16.09 Fair CLR 19.4 1.1 30% 75.64 1005.8
03 18:53 Calm 16.09 Fair CLR 22.2 -3.3 18% 75.67 1006.0
03 17:53 Calm 16.09 Fair CLR 22.2 -3.3 23.3 18.3 18% 75.72 1007.2
03 16:53 E 11 16.09 Mostly Cloudy BKN100 21.7 -1.7 21% 75.77 1007.7
03 15:53 Vrbl 7 16.09 A Few Clouds FEW100 21.7 -2.8 19% 75.82 1008.5
03 14:53 NE 11 16.09 A Few Clouds FEW100 21.7 -2.8 19% 75.87 1008.8
03 13:53 N 11 16.09 Fair CLR 21.7 -0.6 23% 75.95 1009.8
03 12:53 NE 7 16.09 Fair CLR 20 -1.7 23% 76.02 1010.9
03 11:53 Vrbl 7 16.09 Fair CLR 18.9 1.1 18.9 4.4 30% 76.07 1011.8
03 10:53 NE 6 16.09 Fair CLR 16.1 1.1 36% 76.15 1012.8
03 09:53 NW 7 16.09 Fair CLR 15 0.6 38% 76.17 1013.0
03 08:53 SW 6 16.09 Fair CLR 12.8 2.2 49% 76.2 1013.9
03 07:53 N 6 16.09 Fair CLR 10 2.2 59% 76.23 1014.2
03 06:53 Calm 16.09 Fair CLR 8.3 0.6 59% 76.2 1013.5
03 05:53 Calm 16.09 Fair CLR 5 0 12.2 5 70% 76.15 1013.2
03 04:53 SE 6 16.09 Fair CLR 6.7 0.6 65% 76.15 1012.9
03 03:53 NE 6 16.09 Fair CLR 7.2 0.6 63% 76.15 1012.6
03 02:53 N 7 16.09 Fair CLR 10.6 0 48% 76.15 1012.3
03 01:53 Calm 16.09 Fair CLR 10 -0.6 48% 76.15 1012.5
03 00:53 W 6 16.09 Fair CLR 11.1 -0.6 45% 76.12 1012.3
02 23:53 S 7 16.09 Fair CLR 12.2 -2.2 23.9 11.1 37% 76.1 1011.9
02 22:53 SW 6 16.09 Fair CLR 13.3 -5 28% 76.07 1011.8
02 21:53 SE 19 16.09 A Few Clouds FEW110 16.7 -7.2 19% 76.02 1010.7
02 20:53 E 9 16.09 Fair CLR 16.1 -6.7 20% 76 1011.3
02 19:53 E 9 16.09 Fair CLR 18.9 -4.4 20% 75.97 1011.2
02 18:53 E 11 16.09 Fair CLR 22.2 -8.9 12% 76 1011.7
02 17:53 N 11 16.09 Fair CLR 23.3 -8.3 23.9 19.4 11% 76.05 1011.5
02 16:53 NE 11 16.09 Fair CLR 22.8 -7.8 12% 76.07 1012.2
02 15:53 N 13 16.09 Fair CLR 23.3 -7.8 12% 76.15 1013.2
02 14:53 S 7 16.09 Fair CLR 22.2 -10 11% 76.23 1014.2
02 13:53 NW 7 16.09 Fair CLR 22.2 -7.8 13% 76.28 1014.7
02 12:53 Vrbl 6 16.09 Fair CLR 20 -8.3 14% 76.33 1015.7
02 11:53 NW 6 16.09 Fair CLR 19.4 -10 20 1.1 13% 76.4 1016.6
02 10:53 W 7 16.09 Fair CLR 17.2 -5.6 21% 76.43 1017.1
02 09:53 W 9 16.09 Fair CLR 15 -4.4 26% 76.45 1018.2
02 08:53 SW 9 16.09 Fair CLR 10 -5.6 33% 9 76.48 1019.2
02 07:53 SW 9 16.09 Fair CLR 6.7 -2.8 51% 5 76.48 1018.5
02 06:53 Calm 16.09 Fair CLR 1.1 -3.9 70% 76.48 1018.9
02 05:53 SE 22 16.09 Fair CLR 5.6 -5.6 7.8 1.7 45% 2 76.43 1017.5
02 04:53 SE 6 16.09 Fair CLR 4.4 -5 51% 76.45 1017.9
02 03:53 NW 6 16.09 Fair CLR 3.3 -6.1 51% 76.45 1018.2
02 02:53 SE 15 16.09 Fair CLR 4.4 -6.7 45% 1 76.45 1018.1
02 01:53 Calm 16.09 Fair CLR 6.1 -6.1 42% 76.48 1018.4
02 00:53 S 15 16.09 Fair CLR 7.2 -6.7 37% 5 76.48 1018.2
01 23:53 S 19 16.09 Fair CLR 7.8 -6.7 19.4 7.2 35% 5 76.45 1018.4
01 22:53 S 20 16.09 Fair CLR 10.6 -7.8 27% 76.45 1018.1
01 20:53 SE 7 16.09 Fair CLR 8.9 -5 37% 8 76.4 1018.8
01 19:53 Calm 16.09 Fair CLR 16.7 -6.7 20% 76.38 1017.4
01 18:53 NW 9 16.09 Fair CLR 18.9 -11.1 12% 76.38 1017.5
01 17:53 NW 13 16.09 Fair CLR 19.4 -11.1 20 13.9 12% 76.38 1018.2
01 16:53 Vrbl 6 16.09 Fair CLR 19.4 -12.2 11% 76.4 1018.3
01 15:53 Calm 16.09 Fair CLR 18.9 -9.4 14% 76.43 1018.3
01 14:53 N 9 16.09 Fair CLR 18.9 -8.3 15% 76.48 1018.9
01 13:53 Calm 16.09 Fair CLR 16.7 -8.3 17% 76.5 1019.6
01 12:53 NW 17 16.09 Fair CLR 16.7 -6.7 20% 76.53 1020.0
01 11:53 NW 9 16.09 Fair CLR 14.4 -6.1 14.4 -2.2 24% 76.61 1021.2
01 10:53 Calm 16.09 Fair CLR 12.2 -5 30% 76.63 1021.4
01 09:53 Calm 16.09 Fair CLR 9.4 -3.9 39% 76.63 1021.9
01 08:53 W 9 16.09 Fair CLR 6.7 -2.8 51% 5 76.66 1022.1
01 07:53 SW 9 16.09 Fair CLR 3.9 -3.9 57% 2 76.66 1022.0
01 06:53 SE 7 16.09 Fair CLR 0.6 -5 66% -1 76.61 1021.7
Date Time (mdt) Wind (kph) Vis. (km) Weather Sky Cond. Air Dwpt Max. Min. Relative Humidity Wind Chill (°C) Heat Index (°C) altimeter (cm) sea level (mb) 1 hr 3 hr 6 hr
6 hour
Temperature (ºC) Pressure Precipitation (cm)